createdAt,value
2023-01-02T00:03:27.122Z,66335.41
2023-01-02T00:08:33.942Z,66322.53
2023-01-02T00:13:38.346Z,66306.44
2023-01-02T00:18:42.664Z,66331.50
2023-01-02T00:23:48.503Z,66309.03
2023-01-02T00:28:52.643Z,66304.13
2023-01-02T00:33:57.088Z,66302.06
2023-01-02T00:39:02.982Z,66298.94
2023-01-02T00:44:07.016Z,66297.31
2023-01-02T00:49:11.406Z,66278.00
2023-01-02T00:54:17.148Z,66288.19
2023-01-02T00:59:21.622Z,66266.06
2023-01-02T01:04:26.063Z,66306.38
2023-01-02T01:09:32.037Z,66259.16
2023-01-02T01:14:36.356Z,66280.53
2023-01-02T01:19:40.789Z,66257.56
2023-01-02T01:24:46.514Z,66280.59
2023-01-02T01:29:50.642Z,66289.97
2023-01-02T01:34:55.011Z,66273.53
2023-01-02T01:40:00.785Z,66276.84
2023-01-02T01:45:05.176Z,66270.88
2023-01-02T01:50:13.988Z,66264.00
2023-01-02T01:55:23.659Z,66303.75
2023-01-02T02:00:28.532Z,66250.56
2023-01-02T02:05:34.057Z,66295.53
2023-01-02T02:10:40.159Z,66237.25
2023-01-02T02:15:52.478Z,66274.88
2023-01-02T02:21:02.390Z,66323.78
2023-01-02T02:26:34.607Z,66253.16
2023-01-02T02:31:50.206Z,66256.47
2023-01-02T02:37:01.153Z,66211.97
2023-01-02T02:42:14.346Z,66240.50
2023-01-02T02:47:29.061Z,66215.19
2023-01-02T02:52:38.364Z,66194.97
2023-01-02T02:57:44.913Z,66210.44
2023-01-02T03:02:50.965Z,66222.78
2023-01-02T03:08:00.157Z,66183.56
2023-01-02T03:13:14.535Z,66211.50
2023-01-02T03:18:28.991Z,66201.88
2023-01-02T03:23:38.108Z,66201.22
2023-01-02T03:28:47.070Z,66200.16
2023-01-02T03:33:57.322Z,66254.69
2023-01-02T03:39:07.084Z,66220.00
2023-01-02T03:44:13.627Z,66215.09
2023-01-02T03:49:24.161Z,66183.56
2023-01-02T03:54:30.182Z,66192.22
2023-01-02T03:59:40.691Z,66201.22
2023-01-02T04:04:53.244Z,66240.38
2023-01-02T04:09:59.423Z,66209.81
2023-01-02T04:15:07.522Z,66201.88
2023-01-02T04:20:18.552Z,66215.72
2023-01-02T04:25:27.489Z,66173.38
2023-01-02T04:30:36.533Z,66217.31
2023-01-02T04:35:42.280Z,66201.41
2023-01-02T04:40:46.842Z,66169.06
2023-01-02T04:45:52.032Z,66169.00
2023-01-02T04:50:57.885Z,66199.72
2023-01-02T04:56:02.343Z,66178.63
2023-01-02T05:01:10.532Z,66165.41
2023-01-02T05:06:17.462Z,66169.59
2023-01-02T05:11:22.320Z,66142.38
2023-01-02T05:16:26.777Z,66164.34
2023-01-02T05:21:49.851Z,66163.72
2023-01-02T05:26:54.315Z,66158.81
2023-01-02T05:31:58.706Z,66229.47
2023-01-02T05:37:04.709Z,66216.88
2023-01-02T05:42:08.735Z,66233.75
2023-01-02T05:47:16.554Z,66193.75
2023-01-02T05:52:22.494Z,66219.47
2023-01-02T05:57:26.744Z,66237.69
2023-01-02T06:02:31.218Z,66181.41
2023-01-02T06:07:38.232Z,66206.16
2023-01-02T06:12:42.630Z,66220.91
2023-01-02T06:17:46.916Z,66168.63
2023-01-02T06:22:53.479Z,66202.47
2023-01-02T06:27:57.846Z,66215.25
2023-01-02T06:33:04.700Z,66228.13
2023-01-02T06:38:11.697Z,66225.97
2023-01-02T06:43:15.722Z,66223.13
2023-01-02T06:48:20.568Z,66203.94
2023-01-02T06:53:28.228Z,66260.75
2023-01-02T06:58:34.456Z,66273.72
2023-01-02T07:03:39.088Z,66346.75
2023-01-02T07:08:45.601Z,66374.50
2023-01-02T07:13:52.002Z,66403.13
2023-01-02T07:18:58.563Z,66393.34
2023-01-02T07:24:04.655Z,66399.88
2023-01-02T07:29:09.357Z,66457.34
2023-01-02T07:34:13.632Z,66421.84
2023-01-02T07:39:19.489Z,66477.06
2023-01-02T07:44:23.476Z,66490.03
2023-01-02T07:49:27.818Z,66490.72
2023-01-02T07:54:34.191Z,66560.44
2023-01-02T07:59:38.519Z,66582.56
2023-01-02T08:04:42.851Z,66580.78
2023-01-02T08:09:48.842Z,66598.44
2023-01-02T08:14:52.893Z,66610.81
2023-01-02T08:20:01.619Z,66588.22
2023-01-02T08:25:12.846Z,66557.28
2023-01-02T08:30:17.153Z,66605.59
2023-01-02T08:35:36.940Z,66551.66
2023-01-02T08:40:44.112Z,66623.72
2023-01-02T08:45:48.142Z,66582.47
2023-01-02T08:50:52.391Z,66638.38
2023-01-02T08:56:17.844Z,66712.00
2023-01-02T09:01:23.903Z,66698.56
2023-01-02T09:06:31.434Z,66714.69
2023-01-02T09:11:39.591Z,66708.88
2023-01-02T09:16:44.203Z,66683.00
2023-01-02T09:21:49.143Z,66736.75
2023-01-02T09:26:55.141Z,66791.56
2023-01-02T09:31:59.692Z,66731.91
2023-01-02T09:37:04.302Z,66734.06
2023-01-02T09:42:15.940Z,66796.03
2023-01-02T09:47:24.162Z,66797.09
2023-01-02T09:52:31.688Z,66811.13
2023-01-02T09:57:44.189Z,66782.97
2023-01-02T10:03:08.761Z,66780.81
2023-01-02T10:08:31.806Z,66788.50
2023-01-02T10:19:15.843Z,66755.72
2023-01-02T10:24:25.329Z,66794.97
2023-01-02T10:29:35.544Z,66825.13
2023-01-02T10:34:52.401Z,66833.75
2023-01-02T10:39:56.964Z,66793.34
2023-01-02T10:45:02.960Z,66749.75
2023-01-02T10:50:09.373Z,66784.19
2023-01-02T10:55:15.021Z,66824.06
2023-01-02T11:00:30.396Z,66800.78
2023-01-02T11:05:35.204Z,66834.19
2023-01-02T11:10:39.748Z,66803.09
2023-01-02T11:15:54.977Z,66821.91
2023-01-02T11:21:04.454Z,66812.22
2023-01-02T11:26:15.002Z,66821.44
2023-01-02T11:31:23.059Z,66815.50
2023-01-02T11:36:27.758Z,66805.56
2023-01-02T11:41:50.829Z,66870.81
2023-01-02T11:46:57.635Z,66855.19
2023-01-02T11:52:05.161Z,66842.81
2023-01-02T11:57:18.942Z,66821.34
2023-01-02T12:02:31.220Z,66813.81
2023-01-02T12:07:44.653Z,66786.34
2023-01-02T12:13:01.415Z,66859.59
2023-01-02T12:18:20.322Z,66902.66
2023-01-02T12:23:39.433Z,66966.88
2023-01-02T12:29:05.453Z,66902.53
2023-01-02T12:34:22.351Z,66901.00
2023-01-02T12:40:00.198Z,67003.88
2023-01-02T12:45:05.084Z,66922.63
2023-01-02T12:50:48.471Z,66833.22
2023-01-02T12:56:05.601Z,66826.13
2023-01-02T13:01:19.158Z,66868.19
2023-01-02T13:06:44.928Z,66885.44
2023-01-02T13:11:56.126Z,66870.34
2023-01-02T13:17:08.931Z,66839.53
2023-01-02T13:22:28.332Z,66804.66
2023-01-02T13:27:34.304Z,66819.19
2023-01-02T13:32:40.671Z,66847.66
2023-01-02T13:37:47.301Z,66826.13
2023-01-02T13:43:00.866Z,66793.28
2023-01-02T13:48:08.826Z,66763.81
2023-01-02T13:53:31.514Z,66782.97
2023-01-02T13:58:51.012Z,66738.84
2023-01-02T14:04:28.334Z,66695.94
2023-01-02T14:10:11.827Z,66663.09
2023-01-02T14:15:20.076Z,66599.66
2023-01-02T14:20:27.503Z,66566.28
2023-01-02T14:25:34.107Z,66564.09
2023-01-02T14:30:40.330Z,66557.66
2023-01-02T14:35:52.248Z,66515.19
2023-01-02T14:41:18.922Z,66468.47
2023-01-02T14:46:26.962Z,66448.06
2023-01-02T14:51:35.865Z,66450.28
2023-01-02T14:56:44.567Z,66456.72
2023-01-02T15:01:51.847Z,66498.09
2023-01-02T15:07:09.985Z,66488.41
2023-01-02T15:12:41.072Z,66459.88
2023-01-02T15:17:47.634Z,66435.78
2023-01-02T15:22:54.087Z,66446.53
2023-01-02T15:27:59.876Z,66437.94
2023-01-02T15:33:04.425Z,66405.81
2023-01-02T15:38:22.189Z,66474.38
2023-01-02T15:43:49.241Z,66423.97
2023-01-02T15:48:55.099Z,66468.63
2023-01-02T15:54:03.262Z,66424.50
2023-01-02T15:59:26.139Z,66435.78
2023-01-02T16:04:33.279Z,66439.47
2023-01-02T16:09:38.108Z,66443.78
2023-01-02T16:14:47.038Z,66396.06
2023-01-02T16:19:58.615Z,66387.28
2023-01-02T16:25:08.797Z,66362.75
2023-01-02T16:30:32.709Z,66332.28
2023-01-02T16:35:37.897Z,66322.97
2023-01-02T16:41:00.908Z,66329.88
2023-01-02T16:46:11.902Z,66278.47
2023-01-02T16:51:17.241Z,66309.72
2023-01-02T16:56:21.655Z,66369.13
2023-01-02T17:01:27.797Z,66316.09
2023-01-02T17:06:32.468Z,66332.47
2023-01-02T17:11:58.717Z,66279.53
2023-01-02T17:17:04.734Z,66280.78
2023-01-02T17:22:09.210Z,66297.78
2023-01-02T17:27:13.991Z,66251.75
2023-01-02T17:32:20.025Z,66249.59
2023-01-02T17:37:26.305Z,66270.41
2023-01-02T17:42:31.336Z,66288.03
2023-01-02T17:53:02.455Z,66270.50
2023-01-02T17:58:06.897Z,66301.00
2023-01-02T18:03:12.839Z,66299.38
2023-01-02T18:08:17.616Z,66306.91
2023-01-02T18:13:22.180Z,66228.66
2023-01-02T18:18:28.217Z,66285.19
2023-01-02T18:23:32.765Z,66239.75
2023-01-02T18:28:38.533Z,66290.25
2023-01-02T18:33:45.304Z,66194.19
2023-01-02T18:38:51.571Z,66234.28
2023-01-02T18:44:01.582Z,66215.09
2023-01-02T18:49:16.640Z,66198.63
2023-01-02T18:54:29.889Z,66235.56
2023-01-02T18:59:34.925Z,66174.97
2023-01-02T19:04:40.970Z,66174.00
2023-01-02T19:09:45.524Z,66213.13
2023-01-02T19:14:51.928Z,66193.66
2023-01-02T19:19:58.221Z,66162.66
2023-01-02T19:25:10.139Z,66140.78
2023-01-02T19:30:30.644Z,66156.31
2023-01-02T19:35:58.762Z,66176.13
2023-01-02T19:41:03.299Z,66169.72
2023-01-02T19:46:08.657Z,66093.72
2023-01-02T19:51:14.564Z,66128.81
2023-01-02T19:56:19.431Z,66148.19
2023-01-02T20:01:24.101Z,66137.84
2023-01-02T20:06:30.043Z,66147.22
2023-01-02T20:11:51.843Z,66194.19
2023-01-02T20:16:56.641Z,66194.88
2023-01-02T20:22:04.256Z,66175.59
2023-01-02T20:27:08.992Z,66192.66
2023-01-02T20:32:13.458Z,66173.19
2023-01-02T20:37:22.070Z,66141.50
2023-01-02T20:42:26.774Z,66105.41
2023-01-02T20:47:31.105Z,66151.94
2023-01-02T20:52:36.994Z,66177.66
2023-01-02T20:57:41.553Z,66121.13
2023-01-02T21:02:46.111Z,66131.59
2023-01-02T21:07:52.752Z,66116.75
2023-01-02T21:13:10.735Z,66136.41
2023-01-02T21:18:18.360Z,66122.47
2023-01-02T21:23:26.295Z,66122.56
2023-01-02T21:28:30.776Z,66115.78
2023-01-02T21:33:35.915Z,66108.19
2023-01-02T21:38:41.934Z,66122.56
2023-01-02T21:43:46.049Z,66111.31
2023-01-02T21:48:50.540Z,66078.56
2023-01-02T21:53:56.368Z,66042.03
2023-01-02T21:59:00.472Z,66045.88
2023-01-02T22:04:05.026Z,66048.03
2023-01-02T22:09:10.996Z,66103.28
2023-01-02T22:14:15.088Z,66085.63
2023-01-02T22:19:19.597Z,66120.16
2023-01-02T22:24:27.214Z,66067.84
2023-01-02T22:30:00.314Z,66052.50
2023-01-02T22:34:57.466Z,66068.38
2023-01-02T22:40:03.456Z,66080.09
2023-01-02T22:45:08.505Z,66079.63
2023-01-02T22:50:19.924Z,66048.03
2023-01-02T22:55:25.831Z,66061.34
2023-01-02T23:00:30.401Z,66074.91
2023-01-02T23:05:34.882Z,66070.44
2023-01-02T23:10:40.688Z,66070.53
2023-01-02T23:15:59.066Z,66064.09
2023-01-02T23:21:09.395Z,66047.41
2023-01-02T23:26:18.215Z,66067.31
2023-01-02T23:31:22.833Z,66058.28
2023-01-02T23:36:28.010Z,66060.81
2023-01-02T23:41:35.658Z,66088.91
2023-01-02T23:46:41.592Z,66045.78
2023-01-02T23:51:47.835Z,66090.25
2023-01-02T23:56:53.657Z,66093.47
